createdAt,value
2019-05-14T07:07:09.914Z,67.40
2019-05-14T07:09:39.335Z,68.10
2019-05-14T07:12:09.982Z,67.20
2019-05-14T07:14:39.447Z,66.20
2019-05-14T07:17:09.275Z,65.50
2019-05-14T07:19:40.441Z,66.70
2019-05-14T07:22:10.923Z,65.10
2019-05-14T07:24:40.720Z,65.00
2019-05-14T07:27:10.337Z,65.60
2019-05-14T07:29:39.714Z,64.60
2019-05-14T07:32:09.321Z,64.50
2019-05-14T07:34:39.085Z,63.60
2019-05-14T07:37:09.394Z,62.60
2019-05-14T07:39:40.274Z,61.70
2019-05-14T07:42:10.109Z,62.80
2019-05-14T07:44:39.592Z,64.00
2019-05-14T07:47:10.128Z,63.00
2019-05-14T07:49:40.672Z,64.00
2019-05-14T07:52:10.080Z,61.80
2019-05-14T07:54:39.420Z,60.60
2019-05-14T07:57:09.032Z,60.60
2019-05-14T07:59:39.587Z,62.10
2019-05-14T08:02:09.480Z,62.40
2019-05-14T08:04:38.942Z,61.40
2019-05-14T08:07:08.899Z,60.50
2019-05-14T08:09:40.120Z,60.60
2019-05-14T08:12:12.744Z,60.40
2019-05-14T08:14:57.221Z,62.50
2019-05-14T08:17:13.611Z,63.20
2019-05-14T08:19:43.072Z,63.30
2019-05-14T08:22:13.629Z,60.60
2019-05-14T08:24:42.971Z,61.80
2019-05-14T08:27:12.652Z,60.90
2019-05-14T08:29:42.324Z,62.00
2019-05-14T08:32:11.720Z,62.30
2019-05-14T08:34:41.096Z,60.10
2019-05-14T08:37:10.455Z,60.40
2019-05-14T08:39:39.870Z,58.90
2019-05-14T08:42:09.256Z,58.20
2019-05-14T08:44:39.895Z,60.40
2019-05-14T08:47:09.759Z,62.10
2019-05-14T08:49:46.120Z,61.90
2019-05-14T08:52:10.401Z,60.80
2019-05-14T08:54:41.038Z,59.80
2019-05-14T08:57:10.521Z,60.40
2019-05-14T08:59:41.283Z,57.50
2019-05-14T09:02:11.022Z,55.50
2019-05-14T09:04:43.126Z,56.30
2019-05-14T09:07:12.823Z,55.20
2019-05-14T09:09:42.596Z,57.10
2019-05-14T09:12:13.707Z,59.40
2019-05-14T09:14:43.172Z,59.40
2019-05-14T09:17:14.762Z,57.50
2019-05-14T09:19:57.595Z,55.60
2019-05-14T09:22:18.264Z,53.90
2019-05-14T09:24:49.078Z,54.40
2019-05-14T09:27:19.268Z,56.30
2019-05-14T09:29:48.876Z,55.60
2019-05-14T09:33:18.710Z,54.50
2019-05-14T09:34:49.704Z,56.20
2019-05-14T09:37:19.510Z,56.50
2019-05-14T09:39:49.010Z,54.70
2019-05-14T09:42:19.514Z,54.40
2019-05-14T09:44:49.492Z,53.50
2019-05-14T09:47:19.157Z,52.90
2019-05-14T09:49:49.289Z,54.80
2019-05-14T09:52:18.888Z,54.80
2019-05-14T09:54:49.562Z,53.50
2019-05-14T09:57:19.342Z,53.50
2019-05-14T09:59:48.754Z,54.40
2019-05-14T10:02:19.217Z,53.90
2019-05-14T10:04:49.993Z,54.50
2019-05-14T10:07:19.443Z,53.40
2019-05-14T10:09:49.508Z,51.90
2019-05-14T10:12:18.996Z,51.70
2019-05-14T10:14:48.798Z,53.50
2019-05-14T10:17:19.596Z,53.60
2019-05-14T10:19:50.003Z,53.10
2019-05-14T10:22:19.901Z,52.40
2019-05-14T10:24:49.488Z,52.00
2019-05-14T10:27:19.297Z,52.90
2019-05-14T10:29:48.725Z,52.40
2019-05-14T10:32:18.802Z,53.10
2019-05-14T10:34:48.638Z,53.70
2019-05-14T10:37:19.153Z,52.80
2019-05-14T10:39:48.865Z,53.70
2019-05-14T10:42:20.104Z,54.20
2019-05-14T10:44:49.421Z,53.10
2019-05-14T10:47:18.958Z,52.70
2019-05-14T10:49:49.567Z,54.60
2019-05-14T10:52:19.792Z,53.80
2019-05-14T10:54:55.964Z,53.40
2019-05-14T10:57:20.622Z,53.90
2019-05-14T10:59:50.071Z,57.40
2019-05-14T11:02:19.472Z,55.70
2019-05-14T11:04:48.841Z,54.60
2019-05-14T11:07:18.697Z,55.00
2019-05-14T11:09:48.775Z,54.50
2019-05-14T11:12:29.773Z,55.00
2019-05-14T11:14:59.354Z,56.40
2019-05-14T11:17:29.244Z,55.60
2019-05-14T11:19:59.901Z,58.10
2019-05-14T11:22:29.252Z,57.50
2019-05-14T11:24:59.794Z,56.20
2019-05-14T11:27:29.338Z,57.70
2019-05-14T11:29:58.852Z,56.30
2019-05-14T11:32:29.103Z,56.30
2019-05-14T11:34:59.256Z,56.90
2019-05-14T11:37:28.739Z,56.90
2019-05-14T11:39:58.202Z,56.40
2019-05-14T11:42:31.540Z,58.00
2019-05-14T11:45:00.261Z,57.90
2019-05-14T11:47:29.639Z,59.10
2019-05-14T11:49:59.282Z,59.50
2019-05-14T11:52:28.835Z,57.90
2019-05-14T11:54:58.600Z,57.60
2019-05-14T11:57:28.181Z,58.50
2019-05-14T11:59:58.142Z,60.00
2019-05-14T12:02:29.024Z,59.30
2019-05-14T12:04:58.641Z,59.10
2019-05-14T12:07:28.154Z,59.50
2019-05-14T12:09:57.693Z,59.80
2019-05-14T12:12:28.827Z,62.80
2019-05-14T12:14:58.968Z,61.60
2019-05-14T12:17:29.494Z,61.00
2019-05-14T12:19:59.476Z,60.90
2019-05-14T12:22:28.915Z,60.70
2019-05-14T12:24:58.514Z,61.00
2019-05-14T12:27:27.942Z,62.70
2019-05-14T12:29:59.882Z,63.30
2019-05-14T12:32:29.528Z,63.80
2019-05-14T12:34:59.417Z,62.70
2019-05-14T12:37:29.018Z,62.60
2019-05-14T12:39:59.170Z,63.90
2019-05-14T12:42:29.613Z,64.00
2019-05-14T12:44:59.132Z,62.60
2019-05-14T12:47:29.067Z,62.60
2019-05-14T12:49:58.751Z,65.40
2019-05-14T12:52:29.684Z,63.70
2019-05-14T12:54:59.805Z,63.30
2019-05-14T12:57:30.040Z,65.90
2019-05-14T12:59:59.543Z,65.30
2019-05-14T13:02:29.738Z,66.70
2019-05-14T13:05:00.513Z,66.50
2019-05-14T13:07:29.948Z,65.40
2019-05-14T13:09:59.403Z,65.30
2019-05-14T13:12:29.691Z,66.30
2019-05-14T13:15:00.141Z,66.90
2019-05-14T13:17:30.806Z,65.10
2019-05-14T13:20:01.249Z,64.80
2019-05-14T13:22:42.449Z,65.80
2019-05-14T13:25:02.571Z,66.90
2019-05-14T13:27:31.982Z,66.50
2019-05-14T13:30:01.416Z,64.90
2019-05-14T13:32:30.787Z,65.10
2019-05-14T13:35:00.172Z,64.80
2019-05-14T13:37:29.657Z,64.00
2019-05-14T13:39:59.268Z,65.30
2019-05-14T13:42:29.563Z,65.50
2019-05-14T13:44:59.588Z,66.60
2019-05-14T13:47:29.017Z,65.80
2019-05-14T13:49:59.561Z,64.60
2019-05-14T13:52:30.378Z,64.50
2019-05-14T13:54:59.804Z,64.20
2019-05-14T13:57:29.261Z,63.90
2019-05-14T13:59:59.027Z,64.50
2019-05-14T14:02:31.253Z,63.00
2019-05-14T14:05:01.701Z,62.40
2019-05-14T14:07:31.158Z,61.10
2019-05-14T14:10:00.559Z,63.00
2019-05-14T14:12:32.510Z,65.60
2019-05-14T14:15:01.694Z,63.80
2019-05-14T14:17:31.131Z,64.20
2019-05-14T14:20:00.559Z,64.50
2019-05-14T14:22:29.938Z,64.20
2019-05-14T14:24:59.383Z,62.70
2019-05-14T14:27:29.899Z,63.30
2019-05-14T14:29:59.655Z,62.20
2019-05-14T14:32:29.086Z,61.30
2019-05-14T14:34:59.139Z,62.20
2019-05-14T14:37:28.765Z,62.40
2019-05-14T14:39:59.307Z,62.10
2019-05-14T14:42:29.740Z,63.20
2019-05-14T14:44:59.855Z,63.40
2019-05-14T14:47:29.403Z,63.80
2019-05-14T14:50:00.340Z,62.40
2019-05-14T14:52:29.881Z,62.30
2019-05-14T14:54:59.240Z,62.50
2019-05-14T14:57:30.364Z,63.30
2019-05-14T14:59:59.788Z,63.30
2019-05-14T15:02:29.208Z,63.00
2019-05-14T15:04:59.566Z,63.70
2019-05-14T15:07:30.075Z,64.20
2019-05-14T15:09:59.826Z,63.60
2019-05-14T15:12:29.384Z,64.10
2019-05-14T15:14:59.485Z,62.60
2019-05-14T15:17:29.678Z,64.40
2019-05-14T15:19:59.718Z,64.80
2019-05-14T15:22:30.938Z,64.70
2019-05-14T15:25:00.274Z,64.60
2019-05-14T15:27:29.780Z,66.00
2019-05-14T15:29:59.452Z,65.30
2019-05-14T15:32:30.311Z,65.50
2019-05-14T15:35:00.176Z,65.70
2019-05-14T15:37:31.693Z,65.40
2019-05-14T15:40:04.145Z,64.60
2019-05-14T15:42:33.483Z,65.50
2019-05-14T15:45:23.296Z,65.00
